Detall de PIREP

Printer-friendly versionPDF version

[2008/12/22 21:19:00]
Flight IATA:CT0001
Pilot Number:041
Company ICAO:CAT
Aircraft Type:BE20/A
PAX:5
Departing Airport: LEBL
Destination Airport: LERS
Alternate Airport:LELL
Online: VATSIM
Route:VLA1E BCN2Q
Flight Level:FL060
No Slew and time accel
No pause
Crash detect
Detect pilot in Cockpit between each 30 and 45 minutes
21:19 Zero fuel Weight: 9868 Lbs, Fuel Weight: 2511 Lbs
21:19 VATSIM:LEBL 222030Z 32006KT 280V030 7000 NSC 07/05 Q1027 NOSIG
21:19 VATSIM:LERS 222100Z 05005KT 6000 NSC 02/01 Q1027
21:19 VOICE CATALONIAN
21:21 Parking Brakes off
21:30 Take-off
21:30 Take off Weight: 12322 Lbs
21:30 Wind: 341º @ 005 Knots Heading: 018º
21:30 POS N41º 18´ 03´´ E002º 05´ 28´´
21:30 Gear Up: 143 Knots
21:30 Flaps:1 at 143 Knots
21:31 Flaps:0 at 159 Knots
21:36 TOC
21:36 Fuel Weight: 2368 Lb
21:36 TOD
21:36 Fuel Weight: 2360 Lb
21:37 TOC
21:37 Fuel Weight: 23
55 Lb
21:45 Wind:066º@005 Knots Heading: 272º Ground Speed: 227 Knots Altitude 6420 ft
21:57 TOD
21:57 Fuel Weight: 2157 Lb
22:00 Wind:195º@001 Knots Heading: 259º Ground Speed: 185 Knots Altitude 3392 ft
22:00 Flaps:1 at 164 Knots
22:01 Gear Down: 154 Knots
22:03 Flaps:2 at 136 Knots
22:05 TouchDown:Rate -261 ft/min Speed: 110 Knots
22:05 Flaps:0 at 92 Knots
22:05 VATSIM:LERS 222130Z 02003KT 7000 NSC 03/01 Q1027
22:05 Land
22:05 Wind:053º@004 Knots
22:05 Heading: 239º
22:05 Flight Duration: 00:35
22:05 Landing Weight: 11976 Lbs
22:05 POS N41º 08´ 49´´ E001º 09´ 56´´
22:08 Parking brakes on
22:08 Block to Block Duration: 00:47
22:08 Final Fuel: 2096 Lbls
22:08 Spent Fuel: 414 Lbls
22:08 Flight Length: 118 NM
22:08 TOD Land Length: 22 NM

Exportar CSV

Powered by Drupal - Modified by Danger4k